sensor_id;sensor_type;location;lat;lon;timestamp;temperature;humidity
23231;DHT22;11784;49.818;8.632;2022-10-16T00:01:15;18.50;99.90
23231;DHT22;11784;49.818;8.632;2022-10-16T00:03:42;18.50;99.90
23231;DHT22;11784;49.818;8.632;2022-10-16T00:06:08;18.50;99.90
23231;DHT22;11784;49.818;8.632;2022-10-16T00:08:34;18.50;99.90
23231;DHT22;11784;49.818;8.632;2022-10-16T00:11:05;18.50;99.90
23231;DHT22;11784;49.818;8.632;2022-10-16T00:13:33;18.50;99.90
23231;DHT22;11784;49.818;8.632;2022-10-16T00:15:59;18.50;99.90
23231;DHT22;11784;49.818;8.632;2022-10-16T00:18:26;18.50;99.90
23231;DHT22;11784;49.818;8.632;2022-10-16T00:20:51;18.50;99.90
23231;DHT22;11784;49.818;8.632;2022-10-16T00:23:17;18.50;99.90
23231;DHT22;11784;49.818;8.632;2022-10-16T00:25:43;18.50;99.90
23231;DHT22;11784;49.818;8.632;2022-10-16T00:28:08;18.50;99.90
23231;DHT22;11784;49.818;8.632;2022-10-16T00:30:38;18.40;99.90
23231;DHT22;11784;49.818;8.632;2022-10-16T00:33:03;18.50;99.90
23231;DHT22;11784;49.818;8.632;2022-10-16T00:35:30;18.40;99.90
23231;DHT22;11784;49.818;8.632;2022-10-16T00:37:55;18.40;99.90
23231;DHT22;11784;49.818;8.632;2022-10-16T00:40:21;18.40;99.90
23231;DHT22;11784;49.818;8.632;2022-10-16T00:42:47;18.40;99.90
23231;DHT22;11784;49.818;8.632;2022-10-16T00:45:13;18.40;99.90
23231;DHT22;11784;49.818;8.632;2022-10-16T00:47:42;18.40;99.90
23231;DHT22;11784;49.818;8.632;2022-10-16T00:50:24;18.40;99.90
23231;DHT22;11784;49.818;8.632;2022-10-16T00:52:52;18.30;99.90
23231;DHT22;11784;49.818;8.632;2022-10-16T00:55:19;18.30;99.90
23231;DHT22;11784;49.818;8.632;2022-10-16T00:57:45;18.30;99.90
23231;DHT22;11784;49.818;8.632;2022-10-16T01:00:17;18.30;99.90
23231;DHT22;11784;49.818;8.632;2022-10-16T01:02:43;18.30;99.90
23231;DHT22;11784;49.818;8.632;2022-10-16T01:05:09;18.30;99.90
23231;DHT22;11784;49.818;8.632;2022-10-16T01:07:56;18.30;99.90
23231;DHT22;11784;49.818;8.632;2022-10-16T01:13:02;18.30;99.90
23231;DHT22;11784;49.818;8.632;2022-10-16T01:15:31;18.30;99.90
23231;DHT22;11784;49.818;8.632;2022-10-16T01:21:46;18.30;99.90
23231;DHT22;11784;49.818;8.632;2022-10-16T01:29:26;18.30;99.90
23231;DHT22;11784;49.818;8.632;2022-10-16T01:31:59;18.30;99.90
23231;DHT22;11784;49.818;8.632;2022-10-16T01:34:32;18.30;99.90
23231;DHT22;11784;49.818;8.632;2022-10-16T01:37:09;18.30;99.90
23231;DHT22;11784;49.818;8.632;2022-10-16T01:39:39;18.30;99.90
23231;DHT22;11784;49.818;8.632;2022-10-16T01:42:16;18.30;99.90
23231;DHT22;11784;49.818;8.632;2022-10-16T01:44:46;18.30;99.90
23231;DHT22;11784;49.818;8.632;2022-10-16T01:47:13;18.30;99.90
23231;DHT22;11784;49.818;8.632;2022-10-16T01:49:41;18.30;99.90
23231;DHT22;11784;49.818;8.632;2022-10-16T01:52:10;18.40;99.90
23231;DHT22;11784;49.818;8.632;2022-10-16T01:54:40;18.40;99.90
23231;DHT22;11784;49.818;8.632;2022-10-16T01:57:08;18.40;99.90
23231;DHT22;11784;49.818;8.632;2022-10-16T01:59:40;18.40;99.90
23231;DHT22;11784;49.818;8.632;2022-10-16T02:02:09;18.40;99.90
23231;DHT22;11784;49.818;8.632;2022-10-16T02:04:40;18.40;99.90
23231;DHT22;11784;49.818;8.632;2022-10-16T02:07:08;18.40;99.90
23231;DHT22;11784;49.818;8.632;2022-10-16T02:09:34;18.40;99.90
23231;DHT22;11784;49.818;8.632;2022-10-16T02:12:05;18.40;99.90
23231;DHT22;11784;49.818;8.632;2022-10-16T02:14:32;18.40;99.90
23231;DHT22;11784;49.818;8.632;2022-10-16T02:16:58;18.40;99.90
23231;DHT22;11784;49.818;8.632;2022-10-16T02:19:23;18.50;99.90
23231;DHT22;11784;49.818;8.632;2022-10-16T02:21:55;18.50;99.90
23231;DHT22;11784;49.818;8.632;2022-10-16T02:24:29;18.50;99.90
23231;DHT22;11784;49.818;8.632;2022-10-16T02:27:05;18.50;99.90
23231;DHT22;11784;49.818;8.632;2022-10-16T02:29:39;18.50;99.90
23231;DHT22;11784;49.818;8.632;2022-10-16T02:32:06;18.50;99.90
23231;DHT22;11784;49.818;8.632;2022-10-16T02:34:33;18.50;99.90
23231;DHT22;11784;49.818;8.632;2022-10-16T02:37:01;18.50;99.90
23231;DHT22;11784;49.818;8.632;2022-10-16T02:39:28;18.50;99.90
23231;DHT22;11784;49.818;8.632;2022-10-16T02:41:54;18.50;99.90
23231;DHT22;11784;49.818;8.632;2022-10-16T02:44:20;18.50;99.90
23231;DHT22;11784;49.818;8.632;2022-10-16T02:46:45;18.50;99.90
23231;DHT22;11784;49.818;8.632;2022-10-16T02:49:11;18.60;99.90
23231;DHT22;11784;49.818;8.632;2022-10-16T02:51:37;18.60;99.90
23231;DHT22;11784;49.818;8.632;2022-10-16T02:54:02;18.60;99.90
23231;DHT22;11784;49.818;8.632;2022-10-16T02:56:28;18.50;99.90
23231;DHT22;11784;49.818;8.632;2022-10-16T02:58:55;18.50;99.90
23231;DHT22;11784;49.818;8.632;2022-10-16T03:01:20;18.60;99.90
23231;DHT22;11784;49.818;8.632;2022-10-16T03:03:46;18.60;99.90
23231;DHT22;11784;49.818;8.632;2022-10-16T03:06:12;18.60;99.90
23231;DHT22;11784;49.818;8.632;2022-10-16T03:08:37;18.50;99.90
23231;DHT22;11784;49.818;8.632;2022-10-16T03:11:02;18.60;99.90
23231;DHT22;11784;49.818;8.632;2022-10-16T03:13:28;18.60;99.90
23231;DHT22;11784;49.818;8.632;2022-10-16T03:15:53;18.60;99.90
23231;DHT22;11784;49.818;8.632;2022-10-16T03:18:19;18.60;99.90
23231;DHT22;11784;49.818;8.632;2022-10-16T03:20:45;18.60;99.90
23231;DHT22;11784;49.818;8.632;2022-10-16T03:23:10;18.60;99.90
23231;DHT22;11784;49.818;8.632;2022-10-16T03:25:36;18.60;99.90
23231;DHT22;11784;49.818;8.632;2022-10-16T03:28:01;18.60;99.90
23231;DHT22;11784;49.818;8.632;2022-10-16T03:30:27;18.60;99.90
23231;DHT22;11784;49.818;8.632;2022-10-16T03:32:52;18.60;99.90
23231;DHT22;11784;49.818;8.632;2022-10-16T03:35:21;18.60;99.90
23231;DHT22;11784;49.818;8.632;2022-10-16T03:37:47;18.60;99.90
23231;DHT22;11784;49.818;8.632;2022-10-16T03:40:12;18.60;99.90
23231;DHT22;11784;49.818;8.632;2022-10-16T03:42:38;18.60;99.90
23231;DHT22;11784;49.818;8.632;2022-10-16T03:45:04;18.60;99.90
23231;DHT22;11784;49.818;8.632;2022-10-16T03:47:29;18.60;99.90
23231;DHT22;11784;49.818;8.632;2022-10-16T03:49:57;18.60;99.90
23231;DHT22;11784;49.818;8.632;2022-10-16T03:52:23;18.60;99.90
23231;DHT22;11784;49.818;8.632;2022-10-16T03:54:48;18.60;99.90
23231;DHT22;11784;49.818;8.632;2022-10-16T03:57:15;18.60;99.90
23231;DHT22;11784;49.818;8.632;2022-10-16T03:59:40;18.60;99.90
23231;DHT22;11784;49.818;8.632;2022-10-16T04:02:06;18.60;99.90
23231;DHT22;11784;49.818;8.632;2022-10-16T04:04:31;18.60;99.90
23231;DHT22;11784;49.818;8.632;2022-10-16T04:06:57;18.60;99.90
23231;DHT22;11784;49.818;8.632;2022-10-16T04:09:22;18.60;99.90
23231;DHT22;11784;49.818;8.632;2022-10-16T04:11:48;18.50;99.90
23231;DHT22;11784;49.818;8.632;2022-10-16T04:14:14;18.50;99.90
23231;DHT22;11784;49.818;8.632;2022-10-16T04:16:39;18.50;99.90
23231;DHT22;11784;49.818;8.632;2022-10-16T04:19:05;18.50;99.90
23231;DHT22;11784;49.818;8.632;2022-10-16T04:21:30;18.50;99.90
23231;DHT22;11784;49.818;8.632;2022-10-16T04:23:56;18.50;99.90
23231;DHT22;11784;49.818;8.632;2022-10-16T04:26:21;18.50;99.90
23231;DHT22;11784;49.818;8.632;2022-10-16T04:28:47;18.50;99.90
23231;DHT22;11784;49.818;8.632;2022-10-16T04:31:12;18.50;99.90
23231;DHT22;11784;49.818;8.632;2022-10-16T04:33:38;18.50;99.90
23231;DHT22;11784;49.818;8.632;2022-10-16T04:36:04;18.50;99.90
23231;DHT22;11784;49.818;8.632;2022-10-16T04:38:29;18.60;99.90
23231;DHT22;11784;49.818;8.632;2022-10-16T04:40:55;18.60;99.90
23231;DHT22;11784;49.818;8.632;2022-10-16T04:43:21;18.60;99.90
23231;DHT22;11784;49.818;8.632;2022-10-16T04:45:46;18.60;99.90
23231;DHT22;11784;49.818;8.632;2022-10-16T04:48:12;18.60;99.90
23231;DHT22;11784;49.818;8.632;2022-10-16T04:50:38;18.60;99.90
23231;DHT22;11784;49.818;8.632;2022-10-16T04:53:03;18.60;99.90
23231;DHT22;11784;49.818;8.632;2022-10-16T04:55:29;18.60;99.90
23231;DHT22;11784;49.818;8.632;2022-10-16T04:57:54;18.60;99.90
23231;DHT22;11784;49.818;8.632;2022-10-16T05:00:20;18.50;99.90
23231;DHT22;11784;49.818;8.632;2022-10-16T05:02:46;18.50;99.90
23231;DHT22;11784;49.818;8.632;2022-10-16T05:05:11;18.50;99.90
23231;DHT22;11784;49.818;8.632;2022-10-16T05:07:38;18.60;99.90
23231;DHT22;11784;49.818;8.632;2022-10-16T05:10:03;18.50;99.90
23231;DHT22;11784;49.818;8.632;2022-10-16T05:12:29;18.50;99.90
23231;DHT22;11784;49.818;8.632;2022-10-16T05:14:55;18.50;99.90
23231;DHT22;11784;49.818;8.632;2022-10-16T05:17:24;18.50;99.90
23231;DHT22;11784;49.818;8.632;2022-10-16T05:19:50;18.50;99.90
23231;DHT22;11784;49.818;8.632;2022-10-16T05:22:15;18.50;99.90
23231;DHT22;11784;49.818;8.632;2022-10-16T05:24:41;18.60;99.90
23231;DHT22;11784;49.818;8.632;2022-10-16T05:27:07;18.60;99.90
23231;DHT22;11784;49.818;8.632;2022-10-16T05:29:32;18.50;99.90
23231;DHT22;11784;49.818;8.632;2022-10-16T05:31:58;18.60;99.90
23231;DHT22;11784;49.818;8.632;2022-10-16T05:34:23;18.50;99.90
23231;DHT22;11784;49.818;8.632;2022-10-16T05:36:49;18.60;99.90
23231;DHT22;11784;49.818;8.632;2022-10-16T05:39:15;18.50;99.90
23231;DHT22;11784;49.818;8.632;2022-10-16T05:41:41;18.50;99.90
23231;DHT22;11784;49.818;8.632;2022-10-16T05:44:06;18.50;99.90
23231;DHT22;11784;49.818;8.632;2022-10-16T05:46:32;18.50;99.90
23231;DHT22;11784;49.818;8.632;2022-10-16T05:48:58;18.50;99.90
23231;DHT22;11784;49.818;8.632;2022-10-16T05:51:24;18.50;99.90
23231;DHT22;11784;49.818;8.632;2022-10-16T05:53:49;18.50;99.90
23231;DHT22;11784;49.818;8.632;2022-10-16T05:56:15;18.50;99.90
23231;DHT22;11784;49.818;8.632;2022-10-16T05:58:41;18.50;99.90
23231;DHT22;11784;49.818;8.632;2022-10-16T06:01:12;18.50;99.90
23231;DHT22;11784;49.818;8.632;2022-10-16T06:03:38;18.50;99.90
23231;DHT22;11784;49.818;8.632;2022-10-16T06:06:11;18.50;99.90
23231;DHT22;11784;49.818;8.632;2022-10-16T06:08:38;18.50;99.90
23231;DHT22;11784;49.818;8.632;2022-10-16T06:11:08;18.50;99.90
23231;DHT22;11784;49.818;8.632;2022-10-16T06:13:34;18.50;99.90
23231;DHT22;11784;49.818;8.632;2022-10-16T06:16:01;18.50;99.90
23231;DHT22;11784;49.818;8.632;2022-10-16T06:18:28;18.50;99.90
23231;DHT22;11784;49.818;8.632;2022-10-16T06:20:54;18.50;99.90
23231;DHT22;11784;49.818;8.632;2022-10-16T06:23:20;18.50;99.90
23231;DHT22;11784;49.818;8.632;2022-10-16T06:25:46;18.50;99.90
23231;DHT22;11784;49.818;8.632;2022-10-16T06:28:13;18.50;99.90
23231;DHT22;11784;49.818;8.632;2022-10-16T06:30:39;18.50;99.90
23231;DHT22;11784;49.818;8.632;2022-10-16T06:33:05;18.50;99.90
23231;DHT22;11784;49.818;8.632;2022-10-16T06:35:30;18.60;99.90
23231;DHT22;11784;49.818;8.632;2022-10-16T06:37:57;18.60;99.90
23231;DHT22;11784;49.818;8.632;2022-10-16T06:40:23;18.60;99.90
23231;DHT22;11784;49.818;8.632;2022-10-16T06:42:48;18.60;99.90
23231;DHT22;11784;49.818;8.632;2022-10-16T06:45:14;18.60;99.90
23231;DHT22;11784;49.818;8.632;2022-10-16T06:47:39;18.60;99.90
23231;DHT22;11784;49.818;8.632;2022-10-16T06:50:05;18.60;99.90
23231;DHT22;11784;49.818;8.632;2022-10-16T06:52:33;18.60;99.90
23231;DHT22;11784;49.818;8.632;2022-10-16T06:54:59;18.60;99.90
23231;DHT22;11784;49.818;8.632;2022-10-16T06:57:24;18.60;99.90
23231;DHT22;11784;49.818;8.632;2022-10-16T06:59:50;18.70;99.90
23231;DHT22;11784;49.818;8.632;2022-10-16T07:02:15;18.70;99.90
23231;DHT22;11784;49.818;8.632;2022-10-16T07:04:41;18.70;99.90
23231;DHT22;11784;49.818;8.632;2022-10-16T07:07:06;18.70;99.90
23231;DHT22;11784;49.818;8.632;2022-10-16T07:09:32;18.70;99.90
23231;DHT22;11784;49.818;8.632;2022-10-16T07:11:57;18.70;99.90
23231;DHT22;11784;49.818;8.632;2022-10-16T07:14:23;18.70;99.90
23231;DHT22;11784;49.818;8.632;2022-10-16T07:16:48;18.70;99.90
23231;DHT22;11784;49.818;8.632;2022-10-16T07:19:14;18.80;99.90
23231;DHT22;11784;49.818;8.632;2022-10-16T07:21:42;18.70;99.90
23231;DHT22;11784;49.818;8.632;2022-10-16T07:24:15;18.80;99.90
23231;DHT22;11784;49.818;8.632;2022-10-16T07:26:43;18.80;99.90
23231;DHT22;11784;49.818;8.632;2022-10-16T07:29:17;18.80;99.90
23231;DHT22;11784;49.818;8.632;2022-10-16T07:31:43;18.80;99.90
23231;DHT22;11784;49.818;8.632;2022-10-16T07:34:11;18.80;99.90
23231;DHT22;11784;49.818;8.632;2022-10-16T07:36:37;18.80;99.90
23231;DHT22;11784;49.818;8.632;2022-10-16T07:39:03;18.80;99.90
23231;DHT22;11784;49.818;8.632;2022-10-16T07:41:28;18.90;99.90
23231;DHT22;11784;49.818;8.632;2022-10-16T07:43:55;18.90;99.90
23231;DHT22;11784;49.818;8.632;2022-10-16T07:46:22;18.90;99.90
23231;DHT22;11784;49.818;8.632;2022-10-16T07:48:48;18.90;99.90
23231;DHT22;11784;49.818;8.632;2022-10-16T07:51:16;18.90;99.90
23231;DHT22;11784;49.818;8.632;2022-10-16T07:53:42;18.90;99.90
23231;DHT22;11784;49.818;8.632;2022-10-16T07:56:08;19.00;99.90
23231;DHT22;11784;49.818;8.632;2022-10-16T07:58:36;19.00;99.90
23231;DHT22;11784;49.818;8.632;2022-10-16T08:01:09;19.00;99.90
23231;DHT22;11784;49.818;8.632;2022-10-16T08:03:35;19.00;99.90
23231;DHT22;11784;49.818;8.632;2022-10-16T08:06:02;19.00;99.90
23231;DHT22;11784;49.818;8.632;2022-10-16T08:08:28;18.90;99.90
23231;DHT22;11784;49.818;8.632;2022-10-16T08:10:54;18.90;99.90
23231;DHT22;11784;49.818;8.632;2022-10-16T08:13:21;18.90;99.90
23231;DHT22;11784;49.818;8.632;2022-10-16T08:15:47;19.00;99.90
23231;DHT22;11784;49.818;8.632;2022-10-16T08:18:14;19.00;99.90
23231;DHT22;11784;49.818;8.632;2022-10-16T08:20:40;19.10;99.90
23231;DHT22;11784;49.818;8.632;2022-10-16T08:23:07;19.10;99.90
23231;DHT22;11784;49.818;8.632;2022-10-16T08:25:35;19.10;99.90
23231;DHT22;11784;49.818;8.632;2022-10-16T08:28:03;19.10;99.90
23231;DHT22;11784;49.818;8.632;2022-10-16T08:30:29;19.10;99.90
23231;DHT22;11784;49.818;8.632;2022-10-16T08:32:55;19.10;99.90
23231;DHT22;11784;49.818;8.632;2022-10-16T08:35:21;19.10;99.90
23231;DHT22;11784;49.818;8.632;2022-10-16T08:37:46;19.10;99.90
23231;DHT22;11784;49.818;8.632;2022-10-16T08:40:33;19.00;99.90
23231;DHT22;11784;49.818;8.632;2022-10-16T08:43:15;19.00;99.90
23231;DHT22;11784;49.818;8.632;2022-10-16T08:48:53;18.90;99.90
23231;DHT22;11784;49.818;8.632;2022-10-16T08:51:24;18.80;99.90
23231;DHT22;11784;49.818;8.632;2022-10-16T08:53:56;18.70;99.90
23231;DHT22;11784;49.818;8.632;2022-10-16T08:56:22;18.70;99.90
23231;DHT22;11784;49.818;8.632;2022-10-16T08:58:48;18.60;99.90
23231;DHT22;11784;49.818;8.632;2022-10-16T09:01:16;18.60;99.90
23231;DHT22;11784;49.818;8.632;2022-10-16T09:06:52;18.60;99.90
23231;DHT22;11784;49.818;8.632;2022-10-16T09:09:38;18.60;99.90
23231;DHT22;11784;49.818;8.632;2022-10-16T09:12:19;18.60;99.90
23231;DHT22;11784;49.818;8.632;2022-10-16T09:20:16;18.60;99.90
23231;DHT22;11784;49.818;8.632;2022-10-16T09:22:43;18.60;99.90
23231;DHT22;11784;49.818;8.632;2022-10-16T09:25:21;18.70;99.90
23231;DHT22;11784;49.818;8.632;2022-10-16T09:27:55;18.70;99.90
23231;DHT22;11784;49.818;8.632;2022-10-16T09:30:22;18.80;99.90
23231;DHT22;11784;49.818;8.632;2022-10-16T09:32:50;18.80;99.90
23231;DHT22;11784;49.818;8.632;2022-10-16T09:35:19;18.80;99.90
23231;DHT22;11784;49.818;8.632;2022-10-16T09:37:49;18.90;99.90
23231;DHT22;11784;49.818;8.632;2022-10-16T09:40:33;18.90;99.90
23231;DHT22;11784;49.818;8.632;2022-10-16T09:45:34;19.00;99.90
23231;DHT22;11784;49.818;8.632;2022-10-16T09:48:09;19.10;99.90
23231;DHT22;11784;49.818;8.632;2022-10-16T09:50:36;19.10;99.90
23231;DHT22;11784;49.818;8.632;2022-10-16T09:53:13;19.20;99.90
23231;DHT22;11784;49.818;8.632;2022-10-16T09:55:52;19.30;99.90
23231;DHT22;11784;49.818;8.632;2022-10-16T09:58:21;19.30;99.90
23231;DHT22;11784;49.818;8.632;2022-10-16T10:00:50;19.40;99.90
23231;DHT22;11784;49.818;8.632;2022-10-16T10:05:56;19.50;99.90
23231;DHT22;11784;49.818;8.632;2022-10-16T10:08:21;19.50;99.90
23231;DHT22;11784;49.818;8.632;2022-10-16T10:10:48;19.60;99.90
23231;DHT22;11784;49.818;8.632;2022-10-16T10:13:19;19.60;99.90
23231;DHT22;11784;49.818;8.632;2022-10-16T10:15:45;19.70;99.90
23231;DHT22;11784;49.818;8.632;2022-10-16T10:18:18;19.70;99.90
23231;DHT22;11784;49.818;8.632;2022-10-16T10:20:45;19.80;99.90
23231;DHT22;11784;49.818;8.632;2022-10-16T10:23:25;19.80;99.90
23231;DHT22;11784;49.818;8.632;2022-10-16T10:26:11;19.80;99.90
23231;DHT22;11784;49.818;8.632;2022-10-16T10:36:55;19.90;99.90
23231;DHT22;11784;49.818;8.632;2022-10-16T10:45:27;20.00;99.90
23231;DHT22;11784;49.818;8.632;2022-10-16T10:50:41;20.00;99.90
23231;DHT22;11784;49.818;8.632;2022-10-16T10:53:34;20.10;99.90
23231;DHT22;11784;49.818;8.632;2022-10-16T10:56:14;20.10;99.90
23231;DHT22;11784;49.818;8.632;2022-10-16T11:07:05;20.20;99.90
23231;DHT22;11784;49.818;8.632;2022-10-16T11:09:41;20.30;99.90
23231;DHT22;11784;49.818;8.632;2022-10-16T11:12:16;20.30;99.90
23231;DHT22;11784;49.818;8.632;2022-10-16T11:15:20;20.30;99.90
23231;DHT22;11784;49.818;8.632;2022-10-16T11:17:45;20.30;99.90
23231;DHT22;11784;49.818;8.632;2022-10-16T11:20:20;20.40;99.90
23231;DHT22;11784;49.818;8.632;2022-10-16T11:22:59;20.40;99.90
23231;DHT22;11784;49.818;8.632;2022-10-16T11:25:33;20.40;99.90
23231;DHT22;11784;49.818;8.632;2022-10-16T11:28:15;20.40;99.90
23231;DHT22;11784;49.818;8.632;2022-10-16T11:30:59;20.40;99.90
23231;DHT22;11784;49.818;8.632;2022-10-16T11:36:23;20.50;99.90
23231;DHT22;11784;49.818;8.632;2022-10-16T11:44:16;20.60;99.90
23231;DHT22;11784;49.818;8.632;2022-10-16T11:49:50;20.70;99.90
23231;DHT22;11784;49.818;8.632;2022-10-16T11:52:25;20.70;99.90
23231;DHT22;11784;49.818;8.632;2022-10-16T11:55:05;20.80;99.90
23231;DHT22;11784;49.818;8.632;2022-10-16T11:57:38;20.80;99.90
23231;DHT22;11784;49.818;8.632;2022-10-16T12:00:26;20.90;99.90
23231;DHT22;11784;49.818;8.632;2022-10-16T12:08:21;20.90;99.90
23231;DHT22;11784;49.818;8.632;2022-10-16T12:10:47;20.90;99.90
23231;DHT22;11784;49.818;8.632;2022-10-16T12:13:34;21.00;99.90
23231;DHT22;11784;49.818;8.632;2022-10-16T12:16:19;21.00;99.90
23231;DHT22;11784;49.818;8.632;2022-10-16T12:18:47;21.10;99.90
23231;DHT22;11784;49.818;8.632;2022-10-16T12:21:14;21.20;99.90
23231;DHT22;11784;49.818;8.632;2022-10-16T12:23:53;21.20;99.90
23231;DHT22;11784;49.818;8.632;2022-10-16T12:26:28;21.30;99.90
23231;DHT22;11784;49.818;8.632;2022-10-16T12:28:55;21.30;99.90
23231;DHT22;11784;49.818;8.632;2022-10-16T12:31:21;21.40;99.90
23231;DHT22;11784;49.818;8.632;2022-10-16T12:34:03;21.40;99.90
23231;DHT22;11784;49.818;8.632;2022-10-16T12:36:34;21.40;99.90
23231;DHT22;11784;49.818;8.632;2022-10-16T12:39:00;21.40;99.90
23231;DHT22;11784;49.818;8.632;2022-10-16T12:41:32;21.40;99.90
23231;DHT22;11784;49.818;8.632;2022-10-16T12:43:59;21.40;99.90
23231;DHT22;11784;49.818;8.632;2022-10-16T12:51:41;21.50;99.90
23231;DHT22;11784;49.818;8.632;2022-10-16T12:59:59;21.60;99.90
23231;DHT22;11784;49.818;8.632;2022-10-16T13:02:55;21.60;99.90
23231;DHT22;11784;49.818;8.632;2022-10-16T13:05:43;21.60;99.90
23231;DHT22;11784;49.818;8.632;2022-10-16T13:10:54;21.70;99.90
23231;DHT22;11784;49.818;8.632;2022-10-16T13:22:10;21.70;99.90
23231;DHT22;11784;49.818;8.632;2022-10-16T13:28:05;21.60;99.70
23231;DHT22;11784;49.818;8.632;2022-10-16T13:30:41;21.60;99.60
23231;DHT22;11784;49.818;8.632;2022-10-16T13:33:17;21.50;99.90
23231;DHT22;11784;49.818;8.632;2022-10-16T13:35:54;21.50;99.90
23231;DHT22;11784;49.818;8.632;2022-10-16T13:38:23;21.40;99.90
23231;DHT22;11784;49.818;8.632;2022-10-16T13:40:51;21.40;99.90
23231;DHT22;11784;49.818;8.632;2022-10-16T13:43:22;21.30;99.90
23231;DHT22;11784;49.818;8.632;2022-10-16T13:46:04;21.20;99.90
23231;DHT22;11784;49.818;8.632;2022-10-16T13:48:31;21.20;99.90
23231;DHT22;11784;49.818;8.632;2022-10-16T13:51:15;21.20;99.90
23231;DHT22;11784;49.818;8.632;2022-10-16T13:53:42;21.10;99.90
23231;DHT22;11784;49.818;8.632;2022-10-16T13:56:19;21.10;99.90
23231;DHT22;11784;49.818;8.632;2022-10-16T13:58:58;21.10;99.90
23231;DHT22;11784;49.818;8.632;2022-10-16T14:01:28;21.00;99.90
23231;DHT22;11784;49.818;8.632;2022-10-16T14:04:04;21.00;99.90
23231;DHT22;11784;49.818;8.632;2022-10-16T14:06:31;21.00;99.90
23231;DHT22;11784;49.818;8.632;2022-10-16T14:09:05;21.00;99.90
23231;DHT22;11784;49.818;8.632;2022-10-16T14:11:32;21.00;99.90
23231;DHT22;11784;49.818;8.632;2022-10-16T14:13:59;20.90;99.90
23231;DHT22;11784;49.818;8.632;2022-10-16T14:16:27;21.00;99.90
23231;DHT22;11784;49.818;8.632;2022-10-16T14:19:02;21.00;99.90
23231;DHT22;11784;49.818;8.632;2022-10-16T14:21:29;21.00;99.90
23231;DHT22;11784;49.818;8.632;2022-10-16T14:23:55;21.00;99.90
23231;DHT22;11784;49.818;8.632;2022-10-16T14:26:23;21.00;99.90
23231;DHT22;11784;49.818;8.632;2022-10-16T14:29:02;21.00;99.90
23231;DHT22;11784;49.818;8.632;2022-10-16T14:31:31;21.00;99.90
23231;DHT22;11784;49.818;8.632;2022-10-16T14:33:59;21.00;99.90
23231;DHT22;11784;49.818;8.632;2022-10-16T14:36:26;21.10;99.90
23231;DHT22;11784;49.818;8.632;2022-10-16T14:39:15;21.00;99.90
23231;DHT22;11784;49.818;8.632;2022-10-16T14:41:48;21.10;99.90
23231;DHT22;11784;49.818;8.632;2022-10-16T14:44:14;21.00;99.90
23231;DHT22;11784;49.818;8.632;2022-10-16T14:46:41;21.00;99.90
23231;DHT22;11784;49.818;8.632;2022-10-16T14:51:37;21.00;99.90
23231;DHT22;11784;49.818;8.632;2022-10-16T14:54:03;21.00;99.90
23231;DHT22;11784;49.818;8.632;2022-10-16T14:56:32;21.00;99.90
23231;DHT22;11784;49.818;8.632;2022-10-16T14:59:05;21.00;99.90
23231;DHT22;11784;49.818;8.632;2022-10-16T15:01:30;21.00;99.90
23231;DHT22;11784;49.818;8.632;2022-10-16T15:03:56;21.00;99.90
23231;DHT22;11784;49.818;8.632;2022-10-16T15:06:22;21.00;99.90
23231;DHT22;11784;49.818;8.632;2022-10-16T15:08:47;21.00;99.90
23231;DHT22;11784;49.818;8.632;2022-10-16T15:11:18;21.00;99.90
23231;DHT22;11784;49.818;8.632;2022-10-16T15:13:45;21.00;99.90
23231;DHT22;11784;49.818;8.632;2022-10-16T15:16:12;21.00;99.90
23231;DHT22;11784;49.818;8.632;2022-10-16T15:18:38;21.10;99.90
23231;DHT22;11784;49.818;8.632;2022-10-16T15:21:04;21.10;99.90
23231;DHT22;11784;49.818;8.632;2022-10-16T15:23:29;21.10;99.90
23231;DHT22;11784;49.818;8.632;2022-10-16T15:25:56;21.10;99.90
23231;DHT22;11784;49.818;8.632;2022-10-16T15:28:23;21.20;99.90
23231;DHT22;11784;49.818;8.632;2022-10-16T15:30:50;21.20;99.90
23231;DHT22;11784;49.818;8.632;2022-10-16T15:33:25;21.10;99.90
23231;DHT22;11784;49.818;8.632;2022-10-16T15:35:54;21.20;99.90
23231;DHT22;11784;49.818;8.632;2022-10-16T15:38:21;21.20;99.90
23231;DHT22;11784;49.818;8.632;2022-10-16T15:40:48;21.20;99.90
23231;DHT22;11784;49.818;8.632;2022-10-16T15:43:14;21.20;99.90
23231;DHT22;11784;49.818;8.632;2022-10-16T15:45:39;21.20;99.90
23231;DHT22;11784;49.818;8.632;2022-10-16T15:48:05;21.20;99.90
23231;DHT22;11784;49.818;8.632;2022-10-16T15:50:31;21.20;99.90
23231;DHT22;11784;49.818;8.632;2022-10-16T15:52:57;21.20;99.90
23231;DHT22;11784;49.818;8.632;2022-10-16T15:55:23;21.20;99.90
23231;DHT22;11784;49.818;8.632;2022-10-16T15:57:48;21.10;99.90
23231;DHT22;11784;49.818;8.632;2022-10-16T16:00:17;21.20;99.90
23231;DHT22;11784;49.818;8.632;2022-10-16T16:02:44;21.10;99.90
23231;DHT22;11784;49.818;8.632;2022-10-16T16:05:14;21.10;99.90
23231;DHT22;11784;49.818;8.632;2022-10-16T16:07:40;21.10;99.90
23231;DHT22;11784;49.818;8.632;2022-10-16T16:10:08;21.00;99.90
23231;DHT22;11784;49.818;8.632;2022-10-16T16:12:35;21.00;99.90
23231;DHT22;11784;49.818;8.632;2022-10-16T16:15:00;21.00;99.90
23231;DHT22;11784;49.818;8.632;2022-10-16T16:17:26;20.90;99.90
23231;DHT22;11784;49.818;8.632;2022-10-16T16:19:51;20.90;99.90
23231;DHT22;11784;49.818;8.632;2022-10-16T16:22:17;20.80;99.90
23231;DHT22;11784;49.818;8.632;2022-10-16T16:24:44;20.80;99.90
23231;DHT22;11784;49.818;8.632;2022-10-16T16:27:10;20.70;99.90
23231;DHT22;11784;49.818;8.632;2022-10-16T16:29:36;20.70;99.90
23231;DHT22;11784;49.818;8.632;2022-10-16T16:32:01;20.60;99.90
23231;DHT22;11784;49.818;8.632;2022-10-16T16:34:28;20.60;99.90
23231;DHT22;11784;49.818;8.632;2022-10-16T16:36:54;20.60;99.90
23231;DHT22;11784;49.818;8.632;2022-10-16T16:39:21;20.60;99.90
23231;DHT22;11784;49.818;8.632;2022-10-16T16:41:46;20.50;99.90
23231;DHT22;11784;49.818;8.632;2022-10-16T16:44:13;20.50;99.90
23231;DHT22;11784;49.818;8.632;2022-10-16T16:46:39;20.50;99.90
23231;DHT22;11784;49.818;8.632;2022-10-16T16:49:06;20.40;99.90
23231;DHT22;11784;49.818;8.632;2022-10-16T16:51:32;20.40;99.90
23231;DHT22;11784;49.818;8.632;2022-10-16T16:53:57;20.40;99.90
23231;DHT22;11784;49.818;8.632;2022-10-16T16:56:26;20.40;99.90
23231;DHT22;11784;49.818;8.632;2022-10-16T16:58:53;20.30;99.90
23231;DHT22;11784;49.818;8.632;2022-10-16T17:01:25;20.30;99.90
23231;DHT22;11784;49.818;8.632;2022-10-16T17:03:53;20.30;99.90
23231;DHT22;11784;49.818;8.632;2022-10-16T17:06:21;20.30;99.90
23231;DHT22;11784;49.818;8.632;2022-10-16T17:08:48;20.20;99.90
23231;DHT22;11784;49.818;8.632;2022-10-16T17:11:19;20.20;99.90
23231;DHT22;11784;49.818;8.632;2022-10-16T17:13:47;20.20;99.90
23231;DHT22;11784;49.818;8.632;2022-10-16T17:16:13;20.20;99.90
23231;DHT22;11784;49.818;8.632;2022-10-16T17:18:39;20.20;99.90